Terminal Aerodrome Forecast
Issued by NWS

Home | Current Version | Previous Version | Text Only | Print | Product List | Glossary On
Versions: 1 2 3 4 5 6 7 8 9 10 11 12 13 14 15 16
000
FTUS43 KTOP 271729
TAFMHK
TAF
KMHK 271729Z 2718/2818 17004KT P6SM SCT200
     FM280000 15008KT P6SM VCSH OVC060
     FM280400 10008KT P6SM -SHRA OVC025
     FM280700 08010KT 5SM SHRA VCTS OVC015CB
     FM280900 08011KT 6SM SHRA OVC010
     FM281200 09007KT P6SM OVC005
     FM281600 17004KT P6SM BKN008=

USA.gov is the U.S. government's official web portal to all federal, state and local government web resources and services.